Terminal Aerodrome Forecast
Issued by NWS Melbourne, FL

Home | Current Version | Previous Version | Text Only | Print | Product List | Glossary On
Versions: 1 2 3 4 5 6 7 8 9 10 11 12 13 14 15 16 17 18
101
FTUS42 KMLB 250522
TAFDAB
TAF
KDAB 250522Z 2506/2606 VRB02KT P6SM SCT150 BKN250
     FM251400 25005KT P6SM FEW030 SCT250
     FM251900 15008KT P6SM SCT030 SCT060
     FM260000 18004KT P6SM SCT150 SCT250=

USA.gov is the U.S. government's official web portal to all federal, state and local government web resources and services.